Terminal Aerodrome Forecast
Issued by NWS

Home | Current Version | Previous Version | Text Only | Print | Product List | Glossary On
Versions: 1 2 3 4 5 6 7 8 9 10 11 12 13 14 15 16 17 18 19 20 21 22 23 24 25 26 27 28
330
FTUS44 KLIX 271134
TAFHDC
TAF
KHDC 271134Z 2712/2812 15008KT P6SM VCSH OVC015
     FM271500 15006KT P6SM VCTS OVC015CB
     FM271700 17008KT P6SM SCT025 BKN040
      TEMPO 2717/2721 4SM TSRA OVC025CB
     FM272100 17008KT P6SM SCT025 BKN045 PROB30 2721/2802 4SM TSRA
      OVC025CB
     FM280300 15006KT P6SM OVC015=

USA.gov is the U.S. government's official web portal to all federal, state and local government web resources and services.